Time;durP1;ratioP1;P1;durP2;ratioP2;P2;SDS_P1;SDS_P2;PMS_P1;PMS_P2;Temp;Humidity;BMP_temperature;BMP_pressure;BME280_temperature;BME280_humidity;BME280_pressure;Samples;Min_cycle;Max_cycle;Signal;HPM_P1;HPM_P2
2022/03/16 00:00:14;;;;;;;16.63;11.85;;;6.30;99.90;;;;;;5075323;28;20182;-46
2022/03/16 00:02:39;;;;;;;15.45;12.02;;;6.30;99.90;;;;;;5074989;28;20162;-46
2022/03/16 00:05:06;;;;;;;18.35;12.98;;;6.20;99.90;;;;;;5075243;28;20223;-46
2022/03/16 00:07:31;;;;;;;15.43;11.00;;;6.30;99.90;;;;;;5074996;28;20585;-46
2022/03/16 00:09:57;;;;;;;17.27;13.02;;;6.20;99.90;;;;;;5075234;28;20166;-46
2022/03/16 00:12:22;;;;;;;22.60;12.15;;;6.20;99.90;;;;;;5074831;28;20174;-46
2022/03/16 00:14:48;;;;;;;16.05;12.27;;;6.20;99.90;;;;;;5074900;28;20205;-46
2022/03/16 00:17:14;;;;;;;17.70;12.82;;;6.20;99.90;;;;;;5074752;28;20161;-46
2022/03/16 00:19:40;;;;;;;17.60;13.40;;;6.20;99.90;;;;;;5074759;28;20213;-46
2022/03/16 00:22:06;;;;;;;19.98;13.85;;;6.20;99.90;;;;;;5074933;28;20166;-46
2022/03/16 00:24:32;;;;;;;17.85;13.15;;;6.10;99.90;;;;;;5074676;28;20178;-46
2022/03/16 00:26:57;;;;;;;20.98;14.05;;;6.20;99.90;;;;;;5074978;28;20251;-46
2022/03/16 00:29:23;;;;;;;17.77;13.23;;;6.10;99.90;;;;;;5074529;28;20259;-47
2022/03/16 00:31:49;;;;;;;19.00;13.80;;;6.20;99.90;;;;;;5074591;28;20615;-46
2022/03/16 00:34:15;;;;;;;17.52;13.25;;;6.20;99.90;;;;;;5074693;28;20177;-46
2022/03/16 00:36:40;;;;;;;20.58;13.80;;;6.20;99.90;;;;;;5074500;28;20166;-46
2022/03/16 00:39:06;;;;;;;19.55;14.75;;;6.10;99.90;;;;;;5072981;28;20206;-47
2022/03/16 00:41:33;;;;;;;17.30;13.30;;;6.10;99.90;;;;;;5074366;28;20588;-46
2022/03/16 00:43:59;;;;;;;18.52;13.43;;;6.10;99.90;;;;;;5074626;28;20177;-46
2022/03/16 00:46:25;;;;;;;16.67;12.48;;;6.10;99.90;;;;;;5074076;28;20214;-46
2022/03/16 00:48:50;;;;;;;19.27;13.95;;;6.10;99.90;;;;;;5074385;28;20663;-46
2022/03/16 00:51:16;;;;;;;16.17;12.68;;;6.10;99.90;;;;;;5074106;28;20162;-47
2022/03/16 00:53:42;;;;;;;18.08;13.27;;;5.90;99.90;;;;;;5074358;28;20174;-46
2022/03/16 00:56:08;;;;;;;16.40;12.95;;;5.90;99.90;;;;;;5074157;28;20197;-46
2022/03/16 00:58:34;;;;;;;20.00;13.80;;;5.90;99.90;;;;;;5056000;28;20220;-47
2022/03/16 01:01:01;;;;;;;19.88;13.70;;;5.90;99.90;;;;;;5074275;28;20174;-47
2022/03/16 01:03:28;;;;;;;18.75;13.50;;;5.90;99.90;;;;;;5074282;28;20181;-46
2022/03/16 01:05:53;;;;;;;24.23;14.35;;;5.90;99.90;;;;;;5073713;28;20579;-46
2022/03/16 01:08:19;;;;;;;17.67;13.90;;;5.80;99.90;;;;;;5074103;28;20197;-46
2022/03/16 01:10:44;;;;;;;19.52;14.48;;;5.80;99.90;;;;;;5073805;28;20535;-46
2022/03/16 01:13:10;;;;;;;18.65;13.75;;;5.80;99.90;;;;;;5073758;28;20189;-46
2022/03/16 01:15:36;;;;;;;17.88;13.02;;;5.80;99.90;;;;;;5073661;28;20163;-46
2022/03/16 01:18:02;;;;;;;21.88;14.00;;;5.80;99.90;;;;;;5073560;28;20259;-46
2022/03/16 01:20:27;;;;;;;21.45;14.23;;;5.90;99.90;;;;;;5074180;28;20170;-46
2022/03/16 01:22:53;;;;;;;20.92;14.02;;;5.90;99.90;;;;;;5073675;28;20174;-47
2022/03/16 01:25:18;;;;;;;18.00;14.25;;;5.80;99.90;;;;;;5073491;28;20170;-46
2022/03/16 01:27:44;;;;;;;18.60;13.95;;;5.80;99.90;;;;;;5073467;28;20274;-47
2022/03/16 01:30:10;;;;;;;20.55;13.23;;;5.70;99.90;;;;;;5073447;28;20245;-46
2022/03/16 01:32:36;;;;;;;22.90;14.20;;;5.60;99.90;;;;;;5073431;28;20169;-47
2022/03/16 01:35:02;;;;;;;18.52;13.45;;;5.60;99.90;;;;;;5073284;28;20177;-47
2022/03/16 01:37:28;;;;;;;19.08;13.25;;;5.60;99.90;;;;;;5073570;28;20166;-47
2022/03/16 01:39:53;;;;;;;20.95;12.77;;;5.50;99.90;;;;;;5073427;28;20201;-47
2022/03/16 01:42:20;;;;;;;20.15;13.05;;;5.50;99.90;;;;;;5073199;28;20220;-47
2022/03/16 01:44:51;;;;;;;20.33;13.25;;;5.30;99.90;;;;;;5073160;28;20249;-47
2022/03/16 01:47:19;;;;;;;19.38;13.40;;;5.30;99.90;;;;;;5054970;28;20569;-47
2022/03/16 01:49:47;;;;;;;23.77;13.15;;;5.20;99.90;;;;;;5072991;28;20509;-47
2022/03/16 01:52:19;;;;;;;17.58;12.20;;;5.20;99.90;;;;;;5073205;28;20231;-47
2022/03/16 01:54:44;;;;;;;19.25;13.48;;;5.20;99.90;;;;;;5073157;28;20200;-47
2022/03/16 01:57:11;;;;;;;16.42;12.10;;;5.10;99.90;;;;;;5072961;28;20194;-47
2022/03/16 01:59:38;;;;;;;18.85;12.98;;;5.10;99.90;;;;;;5073033;28;20609;-47
2022/03/16 02:02:05;;;;;;;14.82;10.60;;;5.10;99.90;;;;;;5054920;28;20176;-47
2022/03/16 02:04:31;;;;;;;15.25;12.05;;;5.10;99.90;;;;;;5073080;28;20219;-48
2022/03/16 02:06:57;;;;;;;16.33;11.57;;;5.20;99.90;;;;;;5073043;28;20620;-48
2022/03/16 02:09:23;;;;;;;18.83;12.40;;;5.20;99.90;;;;;;5072621;28;20639;-47
2022/03/16 02:11:48;;;;;;;17.80;11.88;;;5.40;99.90;;;;;;5072647;28;20170;-47
2022/03/16 02:14:14;;;;;;;18.20;11.80;;;5.30;99.90;;;;;;5072548;28;20170;-47
2022/03/16 02:16:40;;;;;;;16.88;11.70;;;5.30;99.90;;;;;;5072836;28;20186;-47
2022/03/16 02:19:05;;;;;;;16.13;11.57;;;5.30;99.90;;;;;;5072447;28;20210;-47
2022/03/16 02:21:37;;;;;;;16.40;12.50;;;5.40;99.90;;;;;;5072771;28;20166;-47
2022/03/16 02:24:03;;;;;;;16.80;11.90;;;5.40;99.90;;;;;;5072462;28;20174;-46
2022/03/16 02:26:29;;;;;;;17.83;12.95;;;5.40;99.90;;;;;;5072641;28;20611;-47
2022/03/16 02:28:54;;;;;;;17.25;11.50;;;5.40;99.90;;;;;;5072376;28;20180;-47
2022/03/16 02:31:20;;;;;;;18.30;11.50;;;5.30;99.90;;;;;;5072548;28;20177;-47
2022/03/16 02:33:46;;;;;;;17.10;12.10;;;5.30;99.90;;;;;;5072476;28;20700;-47
2022/03/16 02:36:12;;;;;;;16.33;11.75;;;5.40;99.90;;;;;;5072319;28;20623;-47
2022/03/16 02:38:38;;;;;;;14.40;11.13;;;5.30;99.90;;;;;;5072392;28;20260;-46
2022/03/16 02:41:04;;;;;;;16.60;11.85;;;5.30;99.90;;;;;;5072415;28;20173;-47
2022/03/16 02:43:30;;;;;;;15.90;11.65;;;5.30;99.90;;;;;;5072766;28;20167;-47
2022/03/16 02:45:56;;;;;;;13.80;11.20;;;5.30;99.90;;;;;;5071935;28;20178;-47
2022/03/16 02:48:21;;;;;;;17.50;11.57;;;5.30;99.90;;;;;;5054168;28;20188;-47
2022/03/16 02:50:48;;;;;;;15.30;10.88;;;5.20;99.90;;;;;;5072165;28;20197;-47
2022/03/16 02:53:15;;;;;;;16.92;11.07;;;5.20;99.90;;;;;;5072291;28;20190;-47
2022/03/16 02:55:41;;;;;;;14.75;10.55;;;5.20;99.90;;;;;;5071990;28;20181;-47
2022/03/16 02:58:08;;;;;;;15.02;11.32;;;5.20;99.90;;;;;;5071987;28;20233;-47
2022/03/16 03:00:34;;;;;;;16.83;12.65;;;5.20;99.90;;;;;;5072121;28;20165;-46
2022/03/16 03:02:59;;;;;;;12.82;10.18;;;5.20;99.90;;;;;;5071491;28;20530;-46
2022/03/16 03:05:25;;;;;;;16.92;11.70;;;5.20;99.90;;;;;;5071823;28;20570;-47
2022/03/16 03:07:50;;;;;;;15.00;11.18;;;5.20;99.90;;;;;;5072154;28;20684;-46
2022/03/16 03:10:16;;;;;;;17.42;11.68;;;5.20;99.90;;;;;;5071828;28;20174;-47
2022/03/16 03:12:42;;;;;;;15.75;11.23;;;5.20;99.90;;;;;;5071996;28;20174;-47
2022/03/16 03:15:13;;;;;;;15.93;12.35;;;5.10;99.90;;;;;;5071889;28;20289;-47
2022/03/16 03:17:39;;;;;;;14.88;11.13;;;5.00;99.90;;;;;;5071902;28;20234;-47
2022/03/16 03:20:05;;;;;;;16.40;11.00;;;5.00;99.90;;;;;;5071791;28;20174;-47
2022/03/16 03:22:31;;;;;;;15.38;10.93;;;5.10;99.90;;;;;;5071772;28;20635;-47
2022/03/16 03:24:57;;;;;;;16.25;11.95;;;5.10;99.90;;;;;;5072038;28;20183;-47
2022/03/16 03:27:23;;;;;;;15.60;11.55;;;5.00;99.90;;;;;;5071710;28;20185;-47
2022/03/16 03:29:49;;;;;;;16.83;11.77;;;4.90;99.90;;;;;;5071625;28;20181;-47
2022/03/16 03:32:15;;;;;;;14.30;10.98;;;4.80;99.90;;;;;;5071704;28;20248;-47
2022/03/16 03:34:45;;;;;;;18.20;12.52;;;4.80;99.90;;;;;;5071657;28;20224;-47
2022/03/16 03:37:12;;;;;;;16.02;11.90;;;4.70;99.90;;;;;;5071857;28;20166;-47
2022/03/16 03:39:38;;;;;;;16.90;12.55;;;4.70;99.90;;;;;;5071731;28;20212;-46
2022/03/16 03:42:04;;;;;;;19.10;13.10;;;4.70;99.90;;;;;;5071490;28;20542;-46
2022/03/16 03:44:29;;;;;;;17.73;12.85;;;4.60;99.90;;;;;;5053891;28;20181;-47
2022/03/16 03:46:55;;;;;;;16.52;12.68;;;4.60;99.90;;;;;;5071338;28;20214;-46
2022/03/16 03:49:20;;;;;;;20.95;13.00;;;4.60;99.90;;;;;;5071452;28;20174;-47
2022/03/16 03:51:46;;;;;;;17.70;12.82;;;4.70;99.90;;;;;;5071461;28;20190;-46
2022/03/16 03:54:11;;;;;;;17.48;13.70;;;4.60;99.90;;;;;;5071393;28;20654;-47
2022/03/16 03:56:37;;;;;;;19.15;12.50;;;4.60;99.90;;;;;;5071495;28;20170;-46
2022/03/16 03:59:02;;;;;;;18.60;12.70;;;4.60;99.90;;;;;;5071341;28;20698;-47
2022/03/16 04:01:28;;;;;;;19.23;13.68;;;4.70;99.90;;;;;;5071606;28;20224;-47
2022/03/16 04:03:53;;;;;;;19.40;13.10;;;4.60;99.90;;;;;;5071638;28;20166;-47
2022/03/16 04:06:19;;;;;;;20.48;13.45;;;4.60;99.90;;;;;;5053464;28;20173;-47
2022/03/16 04:08:44;;;;;;;18.48;12.73;;;4.70;99.90;;;;;;5071306;28;20177;-47
2022/03/16 04:11:11;;;;;;;19.27;13.68;;;4.60;99.90;;;;;;5071277;28;20241;-47
2022/03/16 04:13:37;;;;;;;21.73;13.73;;;4.60;99.90;;;;;;5072913;28;20535;-46
2022/03/16 04:16:03;;;;;;;22.13;14.30;;;4.60;99.90;;;;;;5075155;28;20207;-46
2022/03/16 04:18:29;;;;;;;28.27;15.93;;;4.60;99.90;;;;;;5075045;28;20194;-47
2022/03/16 04:20:55;;;;;;;32.10;17.20;;;4.50;99.90;;;;;;5075003;28;20719;-47
2022/03/16 04:23:20;;;;;;;43.20;22.00;;;4.50;99.90;;;;;;5075010;28;20169;-46
2022/03/16 04:25:46;;;;;;;37.55;21.13;;;4.50;99.90;;;;;;5074659;28;20174;-47
2022/03/16 04:28:12;;;;;;;32.97;17.23;;;4.50;99.90;;;;;;5074607;28;20188;-46
2022/03/16 04:30:37;;;;;;;35.50;17.15;;;4.60;99.90;;;;;;5056667;28;20174;-46
2022/03/16 04:33:03;;;;;;;48.45;18.65;;;4.60;99.90;;;;;;5074645;28;20173;-46
2022/03/16 04:35:29;;;;;;;47.92;19.20;;;4.50;99.90;;;;;;5074756;28;20265;-47
2022/03/16 04:37:54;;;;;;;57.50;23.63;;;4.60;99.90;;;;;;5074578;28;20177;-46
2022/03/16 04:40:20;;;;;;;60.08;25.33;;;4.60;99.90;;;;;;5074432;28;20811;-46
2022/03/16 04:42:46;;;;;;;57.90;25.35;;;4.60;99.90;;;;;;5074371;28;20166;-47
2022/03/16 04:45:12;;;;;;;72.13;24.63;;;4.60;99.90;;;;;;5074322;28;20170;-46
2022/03/16 04:47:38;;;;;;;62.92;26.13;;;4.50;99.90;;;;;;5074100;28;20236;-47
2022/03/16 04:50:04;;;;;;;72.47;25.67;;;4.60;99.90;;;;;;5074064;28;20635;-46
2022/03/16 04:52:31;;;;;;;111.88;26.95;;;4.60;99.90;;;;;;5074613;28;20177;-47
2022/03/16 04:54:56;;;;;;;73.53;25.48;;;5.80;99.90;;;;;;5074654;28;20162;-46
2022/03/16 04:57:22;;;;;;;73.93;28.48;;;4.50;99.90;;;;;;5074053;28;20174;-47
2022/03/16 04:59:47;;;;;;;77.10;27.48;;;4.60;99.90;;;;;;5074147;28;20244;-46
2022/03/16 05:02:13;;;;;;;106.07;30.33;;;4.50;99.90;;;;;;5074047;28;20639;-46
2022/03/16 05:04:38;;;;;;;99.97;29.83;;;4.40;99.90;;;;;;5056013;28;20665;-47
2022/03/16 05:07:04;;;;;;;93.90;29.67;;;4.40;99.90;;;;;;5073859;28;20173;-47
2022/03/16 05:09:29;;;;;;;97.20;36.13;;;4.40;99.90;;;;;;5074147;28;20205;-46
2022/03/16 05:11:55;;;;;;;97.25;30.80;;;4.90;99.90;;;;;;5073801;28;20170;-47
2022/03/16 05:14:21;;;;;;;124.43;29.02;;;4.40;99.90;;;;;;5073859;28;20181;-47
2022/03/16 05:16:46;;;;;;;108.82;29.83;;;4.40;99.90;;;;;;5073803;28;20166;-47
2022/03/16 05:19:12;;;;;;;119.25;26.95;;;4.50;99.90;;;;;;5073828;28;20202;-47
2022/03/16 05:21:38;;;;;;;128.85;26.52;;;4.50;99.90;;;;;;5073666;28;20162;-47
2022/03/16 05:24:04;;;;;;;141.02;28.35;;;4.50;99.90;;;;;;5073793;28;20174;-47
2022/03/16 05:26:30;;;;;;;153.70;34.22;;;4.40;99.90;;;;;;5073147;28;20635;-47
2022/03/16 05:28:56;;;;;;;151.30;31.88;;;4.50;99.90;;;;;;5073789;28;20170;-47
2022/03/16 05:31:22;;;;;;;189.43;32.00;;;4.50;99.90;;;;;;5073412;28;20165;-46
2022/03/16 05:33:48;;;;;;;99.47;30.77;;;4.50;99.90;;;;;;5073298;28;20170;-47
2022/03/16 05:36:14;;;;;;;157.85;28.10;;;4.50;99.90;;;;;;5073561;28;20529;-47
2022/03/16 05:38:39;;;;;;;125.75;23.42;;;4.60;99.90;;;;;;5073130;28;20212;-47
2022/03/16 05:41:05;;;;;;;153.63;24.45;;;4.50;99.90;;;;;;5073192;28;20172;-46
2022/03/16 05:43:31;;;;;;;144.98;32.92;;;4.50;99.90;;;;;;5073469;28;20213;-47
2022/03/16 05:45:56;;;;;;;147.07;26.35;;;4.50;99.90;;;;;;5073291;28;20260;-47
2022/03/16 05:48:22;;;;;;;150.25;26.88;;;4.60;99.90;;;;;;5054819;28;20170;-46
2022/03/16 05:50:48;;;;;;;123.47;33.03;;;4.60;99.90;;;;;;5073273;28;20178;-46
2022/03/16 05:53:17;;;;;;;138.32;31.55;;;4.50;99.90;;;;;;5072968;28;20174;-46
2022/03/16 05:55:42;;;;;;;118.53;29.17;;;4.70;99.90;;;;;;5072847;28;20182;-47
2022/03/16 05:58:08;;;;;;;122.63;26.67;;;4.70;99.90;;;;;;5072890;28;20193;-48
2022/03/16 06:00:35;;;;;;;95.63;28.70;;;4.50;99.90;;;;;;5072884;28;20185;-48
2022/03/16 06:03:00;;;;;;;80.25;31.98;;;4.60;99.90;;;;;;5054896;28;20169;-46
2022/03/16 06:05:26;;;;;;;60.55;25.42;;;4.60;99.90;;;;;;5073013;28;20177;-48
2022/03/16 06:07:53;;;;;;;64.13;31.95;;;4.70;99.90;;;;;;5072851;28;20552;-46
2022/03/16 06:10:19;;;;;;;58.80;25.20;;;4.70;99.90;;;;;;5072538;28;20184;-47
2022/03/16 06:12:54;;;;;;;43.95;23.60;;;4.70;99.90;;;;;;5072314;28;20162;-47
2022/03/16 06:15:20;;;;;;;36.80;21.23;;;4.70;99.90;;;;;;5072720;28;20170;-46
2022/03/16 06:17:45;;;;;;;25.85;17.08;;;4.70;99.90;;;;;;5072640;28;20519;-46
2022/03/16 06:20:11;;;;;;;25.13;16.27;;;4.60;99.90;;;;;;5072463;28;20231;-47
2022/03/16 06:22:36;;;;;;;26.67;17.25;;;4.70;99.90;;;;;;5072374;28;20231;-47
2022/03/16 06:25:02;;;;;;;26.08;15.85;;;4.60;99.90;;;;;;5072128;28;20261;-46
2022/03/16 06:27:28;;;;;;;20.85;13.50;;;4.70;99.90;;;;;;5072513;28;20193;-48
2022/03/16 06:29:54;;;;;;;24.17;15.43;;;4.70;99.90;;;;;;5071963;28;20174;-50
2022/03/16 06:32:19;;;;;;;20.75;14.70;;;4.70;99.90;;;;;;5071805;28;20170;-47
2022/03/16 06:34:46;;;;;;;21.05;14.40;;;4.80;99.90;;;;;;5070917;28;20639;-47
2022/03/16 06:37:12;;;;;;;19.60;14.25;;;4.90;99.90;;;;;;5070995;28;20334;-48
2022/03/16 06:39:38;;;;;;;25.70;20.08;;;4.90;99.90;;;;;;5066912;28;20281;-46
2022/03/16 06:42:04;;;;;;;23.77;16.73;;;4.80;99.90;;;;;;5069743;28;20184;-46
2022/03/16 06:44:29;;;;;;;25.48;20.58;;;4.90;99.90;;;;;;5061874;28;20174;-47
2022/03/16 06:46:55;;;;;;;24.92;14.90;;;4.90;99.90;;;;;;5053066;28;20210;-46
2022/03/16 06:49:20;;;;;;;22.48;15.93;;;5.00;99.90;;;;;;5061882;28;20178;-47
2022/03/16 06:51:46;;;;;;;19.45;14.15;;;5.00;99.90;;;;;;5071252;28;20211;-47
2022/03/16 06:54:12;;;;;;;19.88;14.95;;;5.00;99.90;;;;;;5072038;28;20174;-46
2022/03/16 06:56:38;;;;;;;27.80;16.85;;;5.10;99.90;;;;;;5072180;28;20252;-46
2022/03/16 06:59:04;;;;;;;29.73;18.50;;;5.10;99.90;;;;;;5071834;28;20289;-47
2022/03/16 07:01:29;;;;;;;32.25;18.73;;;5.10;99.90;;;;;;5072049;28;20189;-47
2022/03/16 07:03:55;;;;;;;33.95;21.92;;;5.10;99.90;;;;;;5071962;28;20212;-47
2022/03/16 07:06:20;;;;;;;36.80;21.95;;;5.20;99.90;;;;;;5071754;28;20166;-47
2022/03/16 07:08:46;;;;;;;38.03;22.65;;;5.20;99.90;;;;;;5071721;28;20177;-47
2022/03/16 07:11:12;;;;;;;37.20;22.92;;;5.20;99.90;;;;;;5071539;28;20177;-47
2022/03/16 07:13:41;;;;;;;36.00;22.75;;;5.20;99.90;;;;;;5071765;28;20170;-46
2022/03/16 07:16:07;;;;;;;36.63;22.48;;;5.30;99.90;;;;;;5071700;28;20659;-47
2022/03/16 07:18:33;;;;;;;35.75;22.23;;;5.40;99.90;;;;;;5071548;28;20205;-47
2022/03/16 07:20:59;;;;;;;33.38;21.58;;;5.40;99.90;;;;;;5072115;28;20540;-48
2022/03/16 07:23:25;;;;;;;39.58;23.17;;;5.50;99.90;;;;;;5053599;28;20269;-47
2022/03/16 07:25:51;;;;;;;40.72;22.60;;;5.60;99.90;;;;;;5071533;28;20177;-47
2022/03/16 07:28:18;;;;;;;32.65;21.38;;;5.60;99.90;;;;;;5071522;28;20163;-48
2022/03/16 07:30:44;;;;;;;33.92;21.17;;;5.60;99.90;;;;;;5071525;28;20227;-47
2022/03/16 07:33:11;;;;;;;34.25;21.67;;;5.50;99.90;;;;;;5071756;28;20162;-48
2022/03/16 07:35:39;;;;;;;31.67;21.65;;;5.70;99.90;;;;;;5071556;28;20185;-47
2022/03/16 07:38:05;;;;;;;34.58;22.27;;;5.80;99.90;;;;;;5071424;28;20158;-47
2022/03/16 07:40:33;;;;;;;35.30;22.75;;;5.70;99.90;;;;;;5071328;28;20181;-47
2022/03/16 07:42:59;;;;;;;40.72;23.55;;;5.80;99.90;;;;;;5071742;28;20259;-47
2022/03/16 07:45:25;;;;;;;33.55;21.20;;;5.90;99.90;;;;;;5071615;28;20174;-47
2022/03/16 07:47:53;;;;;;;33.78;22.38;;;5.90;99.90;;;;;;5071524;28;20218;-47
2022/03/16 07:50:19;;;;;;;34.17;23.02;;;5.90;99.90;;;;;;5075189;28;20534;-47
2022/03/16 07:52:45;;;;;;;37.33;24.13;;;5.90;99.90;;;;;;5075051;28;20534;-47
2022/03/16 07:55:11;;;;;;;37.60;24.15;;;5.90;99.90;;;;;;5075327;28;20162;-47
2022/03/16 07:57:37;;;;;;;37.75;24.10;;;5.80;99.90;;;;;;5075258;28;20245;-47
2022/03/16 08:00:08;;;;;;;36.58;24.50;;;6.00;99.90;;;;;;5074960;28;20643;-47
2022/03/16 08:02:34;;;;;;;37.22;23.45;;;5.90;99.90;;;;;;5075085;28;20635;-47
2022/03/16 08:05:00;;;;;;;37.22;24.58;;;5.90;99.90;;;;;;5075371;28;20182;-48
2022/03/16 08:07:29;;;;;;;33.58;23.48;;;5.90;99.90;;;;;;5075429;28;20227;-48
2022/03/16 08:09:56;;;;;;;38.70;25.20;;;6.00;99.90;;;;;;5074856;28;20588;-47
2022/03/16 08:12:22;;;;;;;36.20;23.20;;;6.10;99.90;;;;;;5074926;28;20166;-48
2022/03/16 08:14:47;;;;;;;31.90;21.80;;;6.30;99.90;;;;;;5074824;28;20178;-48
2022/03/16 08:17:13;;;;;;;33.60;22.85;;;6.40;99.90;;;;;;5075077;28;20177;-48
2022/03/16 08:19:39;;;;;;;27.02;21.00;;;6.50;99.90;;;;;;5074673;28;20780;-48
2022/03/16 08:22:04;;;;;;;30.10;21.63;;;6.70;99.90;;;;;;5074825;28;20207;-48
2022/03/16 08:24:30;;;;;;;28.20;20.48;;;6.70;99.90;;;;;;5075001;28;20166;-49
2022/03/16 08:26:55;;;;;;;29.60;20.63;;;6.70;99.90;;;;;;5074885;28;20661;-49
2022/03/16 08:29:21;;;;;;;27.30;19.38;;;6.90;99.90;;;;;;5074350;28;20307;-48
2022/03/16 08:31:47;;;;;;;27.00;20.50;;;7.00;99.90;;;;;;5074395;28;20170;-48
2022/03/16 08:34:12;;;;;;;30.08;20.55;;;7.10;99.90;;;;;;5074498;28;20170;-47
2022/03/16 08:36:39;;;;;;;27.85;18.83;;;7.20;99.90;;;;;;5074441;28;20220;-48
2022/03/16 08:39:05;;;;;;;24.75;18.70;;;7.30;99.90;;;;;;5074417;28;20331;-46
2022/03/16 08:41:34;;;;;;;26.80;18.42;;;7.40;99.90;;;;;;5074321;28;20169;-47
2022/03/16 08:44:00;;;;;;;24.55;17.88;;;7.30;99.90;;;;;;5074856;28;20261;-47
2022/03/16 08:46:26;;;;;;;23.83;17.10;;;7.30;99.90;;;;;;5074451;28;20301;-46
2022/03/16 08:48:51;;;;;;;23.98;16.25;;;7.40;99.90;;;;;;5074501;28;20177;-47
2022/03/16 08:51:17;;;;;;;21.92;16.02;;;7.50;99.90;;;;;;5074123;28;20635;-47
2022/03/16 08:53:42;;;;;;;24.00;16.20;;;7.70;99.90;;;;;;5074222;28;20172;-47
2022/03/16 08:56:09;;;;;;;22.83;16.60;;;7.80;99.90;;;;;;5074064;28;20177;-47
2022/03/16 08:58:35;;;;;;;20.35;15.43;;;8.10;99.90;;;;;;5074017;28;20214;-47
2022/03/16 09:01:00;;;;;;;17.95;15.27;;;8.20;99.90;;;;;;5072896;28;20245;-46
2022/03/16 09:03:26;;;;;;;18.80;14.68;;;8.20;99.90;;;;;;5074157;28;20631;-47
2022/03/16 09:05:52;;;;;;;19.38;14.38;;;8.20;99.90;;;;;;5056193;28;20568;-46
2022/03/16 09:08:18;;;;;;;17.02;14.23;;;8.40;99.90;;;;;;5055702;28;20541;-47
2022/03/16 09:10:44;;;;;;;18.25;14.07;;;8.50;99.90;;;;;;5073983;28;20550;-47
2022/03/16 09:13:10;;;;;;;19.75;14.35;;;8.70;99.90;;;;;;5073975;28;20166;-47
2022/03/16 09:15:36;;;;;;;18.00;15.48;;;8.90;99.90;;;;;;5073982;28;20212;-47
2022/03/16 09:18:02;;;;;;;17.83;13.40;;;8.90;99.90;;;;;;5055651;28;20178;-47
2022/03/16 09:20:28;;;;;;;16.08;13.18;;;9.00;99.90;;;;;;5073953;28;20178;-47
2022/03/16 09:22:53;;;;;;;15.77;12.85;;;9.10;99.90;;;;;;5073811;28;20166;-47
2022/03/16 09:25:20;;;;;;;15.68;13.10;;;9.20;99.90;;;;;;5055497;28;20169;-47
2022/03/16 09:27:45;;;;;;;18.00;13.27;;;9.20;99.90;;;;;;5073607;28;20170;-47
2022/03/16 09:30:11;;;;;;;16.60;13.25;;;9.30;99.90;;;;;;5073373;28;20167;-47
2022/03/16 09:32:38;;;;;;;17.20;13.90;;;9.40;99.90;;;;;;5073354;28;20158;-47
2022/03/16 09:35:04;;;;;;;15.02;12.40;;;9.50;99.90;;;;;;5073578;28;20529;-46
2022/03/16 09:37:30;;;;;;;13.40;11.43;;;9.60;99.90;;;;;;5073930;28;20193;-49
2022/03/16 09:39:55;;;;;;;16.25;13.45;;;9.60;99.90;;;;;;5073564;28;20666;-48
2022/03/16 09:42:22;;;;;;;14.60;11.85;;;9.40;99.90;;;;;;5073231;28;20249;-48
2022/03/16 09:44:51;;;;;;;13.68;11.00;;;9.70;99.90;;;;;;5073479;28;20174;-49
2022/03/16 09:47:18;;;;;;;12.68;10.90;;;9.80;99.90;;;;;;5073018;28;20297;-48
2022/03/16 09:49:44;;;;;;;13.07;10.75;;;9.80;99.90;;;;;;5073188;28;20530;-48
2022/03/16 09:52:10;;;;;;;11.95;10.65;;;9.70;99.90;;;;;;5072790;28;20166;-46
2022/03/16 09:54:36;;;;;;;13.40;10.82;;;9.80;99.90;;;;;;5072723;28;20166;-48
2022/03/16 09:57:02;;;;;;;13.52;10.15;;;10.00;99.90;;;;;;5073116;28;20193;-48
2022/03/16 09:59:28;;;;;;;11.77;10.20;;;10.10;99.90;;;;;;5072807;28;20691;-47
2022/03/16 10:02:07;;;;;;;11.10;9.05;;;10.10;99.90;;;;;;5072693;28;20159;-47
2022/03/16 10:04:36;;;;;;;10.93;9.52;;;10.40;99.90;;;;;;5073046;28;20178;-47
2022/03/16 10:07:03;;;;;;;10.13;9.10;;;10.40;99.90;;;;;;5072437;28;20174;-47
2022/03/16 10:15:10;;;;;;;13.13;9.90;;;10.60;99.90;;;;;;5072576;28;20204;-47
2022/03/16 10:17:43;;;;;;;11.07;9.45;;;10.50;99.90;;;;;;5071920;28;20211;-46
2022/03/16 10:20:21;;;;;;;11.23;9.15;;;10.70;99.90;;;;;;5071722;28;20260;-47
2022/03/16 10:22:55;;;;;;;10.50;8.77;;;10.90;99.90;;;;;;5072183;28;20174;-47
2022/03/16 10:25:21;;;;;;;11.05;9.23;;;10.90;99.90;;;;;;5072307;28;20668;-47
2022/03/16 10:27:46;;;;;;;11.32;10.02;;;10.90;99.90;;;;;;5072050;28;20193;-47
2022/03/16 10:30:13;;;;;;;10.80;9.57;;;11.00;99.90;;;;;;5072481;28;20170;-47
2022/03/16 10:32:39;;;;;;;11.85;10.63;;;11.20;99.90;;;;;;5072386;28;20185;-47
2022/03/16 10:35:05;;;;;;;10.30;9.20;;;11.30;99.90;;;;;;5072042;28;20249;-46
2022/03/16 10:37:34;;;;;;;18.00;10.52;;;11.30;99.90;;;;;;5072285;28;20191;-46
2022/03/16 10:40:00;;;;;;;12.48;9.77;;;11.40;99.90;;;;;;5072063;28;20237;-47
2022/03/16 10:48:20;;;;;;;10.70;8.48;;;11.40;99.90;;;;;;5071559;28;20263;-47
2022/03/16 10:50:48;;;;;;;11.10;9.30;;;11.60;99.90;;;;;;5072013;28;20165;-46
2022/03/16 10:53:16;;;;;;;10.75;9.25;;;11.70;99.90;;;;;;5072231;28;20253;-47
2022/03/16 10:55:43;;;;;;;9.55;8.55;;;11.90;99.90;;;;;;5071550;28;20215;-47
2022/03/16 10:58:11;;;;;;;10.75;8.95;;;11.90;99.90;;;;;;5072175;28;20615;-47
2022/03/16 11:00:38;;;;;;;10.20;9.15;;;12.00;99.90;;;;;;5072058;28;20173;-48
2022/03/16 11:03:06;;;;;;;12.32;8.85;;;11.90;99.90;;;;;;5071794;28;20162;-47
2022/03/16 11:05:36;;;;;;;9.43;8.43;;;11.90;99.90;;;;;;5071847;28;20200;-47
2022/03/16 11:08:07;;;;;;;12.32;10.18;;;11.90;99.90;;;;;;5071488;28;20174;-47
2022/03/16 11:10:37;;;;;;;11.38;8.88;;;11.90;99.90;;;;;;5072123;28;20182;-47
2022/03/16 11:15:53;;;;;;;10.02;7.95;;;12.20;99.90;;;;;;5072028;28;20169;-47
2022/03/16 11:18:20;;;;;;;9.13;7.95;;;12.10;99.90;;;;;;5071502;28;20246;-47
2022/03/16 11:20:50;;;;;;;10.35;8.38;;;11.90;99.90;;;;;;5071679;28;20165;-47
2022/03/16 11:26:24;;;;;;;9.50;8.50;;;11.60;99.90;;;;;;5075452;28;20294;-47
2022/03/16 11:29:20;;;;;;;9.85;8.40;;;11.70;99.90;;;;;;5075693;28;20168;-47
2022/03/16 11:31:48;;;;;;;9.30;8.07;;;11.70;99.90;;;;;;5075706;28;20165;-47
2022/03/16 11:34:21;;;;;;;15.57;11.10;;;11.70;99.90;;;;;;5075591;28;20173;-47
2022/03/16 11:37:00;;;;;;;9.57;8.00;;;11.90;99.90;;;;;;5075444;28;20650;-47
2022/03/16 11:39:25;;;;;;;10.80;8.77;;;12.00;99.90;;;;;;5075891;28;20243;-47
2022/03/16 11:41:54;;;;;;;10.35;8.20;;;12.00;99.90;;;;;;5075410;28;20197;-48
2022/03/16 11:44:25;;;;;;;12.73;9.60;;;11.90;99.90;;;;;;5075228;28;20627;-47
2022/03/16 11:47:16;;;;;;;9.77;8.25;;;12.00;99.90;;;;;;5075155;28;20586;-47
2022/03/16 11:49:45;;;;;;;12.32;8.27;;;11.90;99.90;;;;;;5058627;28;20178;-47
2022/03/16 11:52:11;;;;;;;9.95;8.43;;;12.20;99.90;;;;;;5075481;28;20186;-53
2022/03/16 11:54:52;;;;;;;15.85;10.75;;;12.40;99.90;;;;;;5057351;28;20203;-48
2022/03/16 11:57:36;;;;;;;9.95;8.85;;;12.30;99.90;;;;;;5075205;28;20162;-48
2022/03/16 12:00:14;;;;;;;9.20;8.25;;;12.40;99.90;;;;;;5057113;28;20250;-48
2022/03/16 12:02:40;;;;;;;8.88;7.97;;;12.30;99.90;;;;;;5075133;28;20193;-48
2022/03/16 12:05:10;;;;;;;9.85;8.80;;;12.20;99.90;;;;;;5074770;28;20516;-48
2022/03/16 12:07:36;;;;;;;9.63;8.27;;;12.30;99.90;;;;;;5075149;28;20252;-47
2022/03/16 12:10:03;;;;;;;9.10;8.15;;;12.50;99.90;;;;;;5074999;28;20162;-47
2022/03/16 12:15:22;;;;;;;15.00;10.70;;;12.70;99.90;;;;;;5075000;28;20212;-47
2022/03/16 12:17:54;;;;;;;13.18;8.73;;;12.70;99.90;;;;;;5074130;28;20536;-48
2022/03/16 12:20:34;;;;;;;10.13;8.27;;;12.80;99.90;;;;;;5074431;28;20612;-48
2022/03/16 12:23:12;;;;;;;9.93;8.38;;;13.00;99.90;;;;;;5057054;28;20631;-47
2022/03/16 12:25:40;;;;;;;9.20;8.07;;;12.80;99.90;;;;;;5074433;28;20627;-47
2022/03/16 12:31:08;;;;;;;15.75;13.20;;;12.90;99.90;;;;;;5074383;28;20184;-47
2022/03/16 12:33:55;;;;;;;17.42;14.13;;;13.10;99.90;;;;;;5074219;28;20162;-47
2022/03/16 12:36:36;;;;;;;11.65;7.85;;;12.90;99.90;;;;;;5073881;28;20190;-47
2022/03/16 12:39:09;;;;;;;11.20;10.10;;;13.10;99.90;;;;;;5074563;28;20621;-47
2022/03/16 12:44:24;;;;;;;7.65;6.90;;;13.00;99.90;;;;;;5074386;28;20188;-47
2022/03/16 12:47:34;;;;;;;10.98;8.52;;;12.90;99.90;;;;;;5073637;28;20216;-47
2022/03/16 12:50:02;;;;;;;9.00;7.18;;;13.10;99.90;;;;;;5069443;28;20186;-47
2022/03/16 12:52:28;;;;;;;8.65;7.22;;;13.00;99.90;;;;;;5056470;28;20180;-47
2022/03/16 12:55:01;;;;;;;9.35;6.93;;;12.90;99.90;;;;;;5074002;28;20258;-47
2022/03/16 12:57:30;;;;;;;8.63;7.70;;;12.80;99.90;;;;;;5053903;28;20182;-47
2022/03/16 12:59:57;;;;;;;9.25;7.32;;;12.80;99.90;;;;;;5074343;28;20687;-47